createdAt,value
2023-03-07T00:04:02.670Z,1.50
2023-03-07T00:14:07.388Z,1.40
2023-03-07T00:24:09.415Z,0.90
2023-03-07T00:34:11.074Z,1.08
2023-03-07T00:44:12.741Z,0.82
2023-03-07T00:54:14.640Z,0.82
2023-03-07T01:04:16.282Z,0.70
2023-03-07T01:14:17.942Z,0.65
2023-03-07T01:24:19.603Z,1.02
2023-03-07T01:34:21.368Z,0.60
2023-03-07T01:44:26.048Z,0.50
2023-03-07T01:54:28.586Z,0.60
2023-03-07T02:04:40.551Z,0.50
2023-03-07T02:14:46.809Z,0.47
2023-03-07T02:24:52.531Z,0.95
2023-03-07T02:34:54.964Z,0.70
2023-03-07T02:45:00.293Z,0.40
2023-03-07T02:55:05.327Z,0.52
2023-03-07T03:05:10.811Z,0.65
2023-03-07T03:15:12.682Z,0.88
2023-03-07T03:25:15.296Z,0.70
2023-03-07T03:35:18.737Z,0.37
2023-03-07T03:45:22.756Z,0.82
2023-03-07T03:55:24.430Z,0.90
2023-03-07T04:05:26.516Z,0.93
2023-03-07T04:15:30.615Z,0.77
2023-03-07T04:25:33.120Z,0.95
2023-03-07T04:35:34.920Z,1.80
2023-03-07T04:45:37.865Z,0.80
2023-03-07T04:55:39.671Z,0.90
2023-03-07T05:05:41.739Z,1.58
2023-03-07T05:15:44.495Z,1.27
2023-03-07T05:25:49.929Z,0.60
2023-03-07T05:35:51.660Z,2.25
2023-03-07T05:45:53.762Z,3.95
2023-03-07T05:55:55.677Z,5.85
2023-03-07T06:05:57.804Z,8.57
2023-03-07T06:15:59.516Z,9.57
2023-03-07T06:26:01.926Z,5.53
2023-03-07T06:36:08.706Z,3.55
2023-03-07T06:46:11.164Z,2.17
2023-03-07T07:06:19.026Z,3.28
2023-03-07T07:16:23.071Z,2.83
2023-03-07T07:26:26.826Z,2.70
2023-03-07T07:36:29.037Z,2.17
2023-03-07T07:46:30.810Z,1.65
2023-03-07T07:56:32.936Z,1.58
2023-03-07T08:06:35.074Z,2.08
2023-03-07T08:16:38.809Z,1.77
2023-03-07T08:26:40.569Z,2.65
2023-03-07T08:36:42.252Z,2.03
2023-03-07T08:46:43.819Z,2.63
2023-03-07T08:56:57.644Z,2.42
2023-03-07T09:07:01.511Z,2.40
2023-03-07T09:17:05.777Z,2.17
2023-03-07T09:27:07.381Z,2.38
2023-03-07T09:37:09.129Z,2.03
2023-03-07T09:47:14.300Z,2.90
2023-03-07T09:57:29.326Z,3.38
2023-03-07T10:07:31.335Z,1.55
2023-03-07T10:17:59.825Z,2.38
2023-03-07T10:28:21.847Z,1.42
2023-03-07T10:38:29.955Z,2.03
2023-03-07T10:48:31.766Z,1.85
2023-03-07T10:58:33.705Z,1.52
2023-03-07T11:08:36.343Z,1.85
2023-03-07T11:18:41.165Z,1.75
2023-03-07T11:28:43.091Z,1.45
2023-03-07T11:39:16.507Z,1.50
2023-03-07T11:49:37.638Z,0.70
2023-03-07T16:19:12.404Z,2.67
2023-03-07T16:29:16.340Z,1.25
2023-03-07T16:39:18.563Z,0.95
2023-03-07T16:49:21.780Z,2.50
2023-03-07T16:59:24.858Z,1.15
2023-03-07T17:20:22.742Z,1.40
2023-03-07T17:30:26.627Z,1.48
2023-03-07T17:40:28.547Z,1.37
2023-03-07T17:50:30.066Z,1.55
2023-03-07T18:00:31.601Z,0.77
2023-03-07T18:10:33.086Z,1.55
2023-03-07T18:20:35.610Z,0.65
2023-03-07T18:30:37.166Z,1.08
2023-03-07T18:40:40.413Z,0.43
2023-03-07T18:50:42.189Z,0.30
2023-03-07T19:00:44.146Z,0.63
2023-03-07T19:10:46.051Z,0.50
2023-03-07T19:20:47.745Z,0.63
2023-03-07T19:30:52.622Z,0.30
2023-03-07T19:40:57.026Z,0.50
2023-03-07T19:50:59.009Z,0.73
2023-03-07T20:01:07.003Z,0.25
2023-03-07T20:11:14.634Z,0.50
2023-03-07T20:21:17.172Z,0.90
2023-03-07T20:31:20.105Z,1.92
2023-03-07T20:41:23.877Z,0.55
2023-03-07T20:51:28.895Z,1.23
2023-03-07T21:11:33.052Z,0.73
2023-03-07T21:21:35.716Z,0.25
2023-03-07T21:31:38.801Z,0.28
2023-03-07T21:41:41.012Z,0.70
2023-03-07T21:51:42.823Z,0.47
2023-03-07T22:01:46.368Z,1.38
2023-03-07T22:11:48.389Z,0.52
2023-03-07T22:21:50.145Z,0.45
2023-03-07T22:42:43.421Z,0.32
2023-03-07T22:52:47.661Z,0.50
2023-03-07T23:02:50.223Z,0.50
2023-03-07T23:12:52.128Z,0.43
2023-03-07T23:22:54.165Z,0.88
2023-03-07T23:32:56.097Z,0.40
2023-03-07T23:42:58.861Z,0.73
2023-03-07T23:53:00.612Z,0.30
